createdAt,value
2023-01-26T00:01:23.404Z,61.97
2023-01-26T00:03:50.470Z,61.03
2023-01-26T00:06:20.632Z,55.97
2023-01-26T00:08:48.997Z,61.10
2023-01-26T00:11:17.289Z,59.53
2023-01-26T00:13:44.124Z,61.17
2023-01-26T00:16:12.275Z,57.10
2023-01-26T00:18:39.565Z,58.00
2023-01-26T00:21:06.935Z,61.70
2023-01-26T00:23:38.435Z,64.90
2023-01-26T00:26:13.808Z,61.97
2023-01-26T00:28:40.709Z,57.83
2023-01-26T00:31:09.781Z,63.67
2023-01-26T00:33:36.628Z,65.27
2023-01-26T00:36:03.517Z,68.33
2023-01-26T00:38:30.295Z,67.20
2023-01-26T00:40:59.492Z,64.80
2023-01-26T00:43:31.085Z,65.20
2023-01-26T00:45:57.909Z,69.97
2023-01-26T00:48:27.184Z,68.93
2023-01-26T00:50:56.076Z,62.13
2023-01-26T00:53:22.831Z,64.13
2023-01-26T00:55:49.593Z,69.53
2023-01-26T00:58:21.208Z,67.97
2023-01-26T01:00:50.472Z,69.20
2023-01-26T01:03:19.899Z,67.63
2023-01-26T01:05:46.678Z,73.10
2023-01-26T01:08:13.454Z,64.43
2023-01-26T01:10:44.876Z,72.67
2023-01-26T01:13:14.149Z,67.57
2023-01-26T01:15:41.032Z,69.60
2023-01-26T01:18:09.866Z,61.50
2023-01-26T01:20:40.131Z,65.07
2023-01-26T01:23:09.128Z,73.67
2023-01-26T01:25:36.052Z,66.33
2023-01-26T01:28:02.835Z,68.13
2023-01-26T01:30:34.486Z,67.13
2023-01-26T01:33:03.418Z,69.67
2023-01-26T01:35:30.182Z,66.30
2023-01-26T01:37:59.432Z,65.70
2023-01-26T01:40:26.195Z,66.70
2023-01-26T01:42:52.984Z,68.03
2023-01-26T01:45:42.687Z,72.20
2023-01-26T01:48:20.979Z,71.23
2023-01-26T01:50:47.787Z,75.03
2023-01-26T01:53:18.236Z,69.90
2023-01-26T01:55:45.558Z,71.07
2023-01-26T01:58:12.336Z,70.70
2023-01-26T02:00:39.151Z,67.87
2023-01-26T02:03:19.328Z,76.67
2023-01-26T02:05:46.147Z,72.43
2023-01-26T02:08:13.847Z,72.43
2023-01-26T02:10:43.903Z,71.00
2023-01-26T02:13:10.668Z,73.07
2023-01-26T02:15:37.997Z,70.33
2023-01-26T02:18:04.917Z,66.77
2023-01-26T02:20:45.089Z,72.77
2023-01-26T02:23:23.663Z,73.00
2023-01-26T02:25:51.975Z,74.83
2023-01-26T02:28:19.420Z,74.20
2023-01-26T02:30:46.259Z,68.80
2023-01-26T02:33:23.588Z,75.03
2023-01-26T02:35:50.491Z,73.10
2023-01-26T02:38:20.031Z,72.83
2023-01-26T02:40:58.928Z,69.27
2023-01-26T02:43:26.616Z,69.70
2023-01-26T02:45:53.606Z,71.47
2023-01-26T02:48:39.228Z,71.07
2023-01-26T02:51:06.307Z,69.17
2023-01-26T02:53:35.425Z,69.67
2023-01-26T02:56:02.229Z,70.43
2023-01-26T02:58:29.071Z,74.70
2023-01-26T03:00:55.934Z,68.27
2023-01-26T03:03:41.782Z,72.90
2023-01-26T03:06:12.458Z,73.73
2023-01-26T03:08:44.260Z,67.50
2023-01-26T03:11:13.556Z,71.03
2023-01-26T03:13:42.539Z,68.90
2023-01-26T03:16:10.318Z,68.40
2023-01-26T03:18:55.532Z,72.07
2023-01-26T03:21:43.401Z,72.60
2023-01-26T03:24:30.173Z,65.40
2023-01-26T03:27:15.320Z,66.80
2023-01-26T03:29:42.199Z,67.77
2023-01-26T03:32:09.039Z,70.63
2023-01-26T03:34:35.940Z,67.10
2023-01-26T03:37:02.962Z,66.00
2023-01-26T03:39:48.310Z,69.70
2023-01-26T03:42:33.677Z,66.50
2023-01-26T03:45:19.301Z,66.83
2023-01-26T03:48:05.702Z,67.07
2023-01-26T03:50:51.091Z,63.17
2023-01-26T03:53:38.172Z,67.00
2023-01-26T03:56:22.134Z,68.30
2023-01-26T03:58:55.798Z,64.67
2023-01-26T04:01:27.801Z,69.70
2023-01-26T04:04:14.695Z,68.33
2023-01-26T04:07:02.640Z,64.40
2023-01-26T04:09:29.605Z,66.13
2023-01-26T04:12:01.013Z,63.43
2023-01-26T04:14:49.767Z,65.43
2023-01-26T04:17:36.214Z,65.17
2023-01-26T04:20:22.128Z,61.60
2023-01-26T04:22:48.867Z,64.00
2023-01-26T04:25:19.278Z,61.30
2023-01-26T04:27:46.268Z,61.80
2023-01-26T04:30:16.265Z,64.33
2023-01-26T04:32:43.129Z,66.40
2023-01-26T04:35:12.544Z,63.43
2023-01-26T04:37:39.332Z,64.57
2023-01-26T04:40:07.019Z,58.90
2023-01-26T04:42:33.776Z,58.47
2023-01-26T04:45:00.584Z,58.30
2023-01-26T04:47:29.650Z,62.53
2023-01-26T04:49:58.868Z,60.00
2023-01-26T04:52:27.960Z,63.73
2023-01-26T04:54:56.833Z,60.07
2023-01-26T04:57:24.993Z,57.37
2023-01-26T04:59:54.327Z,62.80
2023-01-26T05:02:23.612Z,53.37
2023-01-26T05:04:50.394Z,57.73
2023-01-26T05:07:19.355Z,63.13
2023-01-26T05:09:46.183Z,56.37
2023-01-26T05:12:33.540Z,58.33
2023-01-26T05:15:00.359Z,63.27
2023-01-26T05:17:27.185Z,57.60
2023-01-26T05:19:53.934Z,60.93
2023-01-26T05:22:20.713Z,63.90
2023-01-26T05:24:47.469Z,65.57
2023-01-26T05:27:23.290Z,62.07
2023-01-26T05:29:50.890Z,64.87
2023-01-26T05:32:20.218Z,65.30
2023-01-26T05:34:46.997Z,65.07
2023-01-26T05:37:14.977Z,76.80
2023-01-26T05:39:42.288Z,73.07
2023-01-26T05:42:09.079Z,79.57
2023-01-26T05:44:35.831Z,83.47
2023-01-26T05:47:02.686Z,84.97
2023-01-26T05:49:29.483Z,85.93
2023-01-26T05:51:56.426Z,86.73
2023-01-26T05:54:25.454Z,87.50
2023-01-26T05:56:53.426Z,85.97
2023-01-26T05:59:22.508Z,86.50
2023-01-26T06:01:49.392Z,80.30
2023-01-26T06:04:16.235Z,80.23
2023-01-26T06:06:43.033Z,84.57
2023-01-26T06:09:12.297Z,79.23
2023-01-26T06:11:39.060Z,84.53
2023-01-26T06:14:05.890Z,79.97
2023-01-26T06:16:32.731Z,75.27
2023-01-26T06:18:59.561Z,78.87
2023-01-26T06:21:31.065Z,79.17
2023-01-26T06:23:57.947Z,78.83
2023-01-26T06:26:27.870Z,77.83
2023-01-26T06:28:57.187Z,77.40
2023-01-26T06:31:29.565Z,73.23
2023-01-26T06:33:56.536Z,76.03
2023-01-26T06:36:23.322Z,68.73
2023-01-26T06:38:55.588Z,71.37
2023-01-26T06:41:23.195Z,69.03
2023-01-26T06:43:49.998Z,70.07
2023-01-26T06:46:17.239Z,74.20
2023-01-26T06:48:44.132Z,66.40
2023-01-26T06:51:16.970Z,64.90
2023-01-26T06:53:48.067Z,68.73
2023-01-26T06:56:14.991Z,69.40
2023-01-26T06:58:41.757Z,67.60
2023-01-26T07:01:11.127Z,67.70
2023-01-26T07:03:39.960Z,64.20
2023-01-26T07:06:08.026Z,68.37
2023-01-26T07:08:34.779Z,61.97
2023-01-26T07:11:01.546Z,70.17
2023-01-26T07:13:28.363Z,64.37
2023-01-26T07:16:08.383Z,66.00
2023-01-26T07:18:35.198Z,71.97
2023-01-26T07:21:04.961Z,63.77
2023-01-26T07:23:33.451Z,68.30
2023-01-26T07:26:08.805Z,69.47
2023-01-26T07:28:35.741Z,60.00
2023-01-26T07:31:05.151Z,62.77
2023-01-26T07:33:34.753Z,59.27
2023-01-26T07:36:04.142Z,59.83
2023-01-26T07:38:30.974Z,59.83
2023-01-26T07:41:04.114Z,57.87
2023-01-26T07:43:35.693Z,54.70
2023-01-26T07:46:02.608Z,53.07
2023-01-26T07:48:32.196Z,55.27
2023-01-26T07:51:00.332Z,52.43
2023-01-26T07:53:29.325Z,46.47
2023-01-26T07:56:06.549Z,51.33
2023-01-26T07:58:33.372Z,54.57
2023-01-26T08:01:10.957Z,47.80
2023-01-26T08:03:37.821Z,45.57
2023-01-26T08:06:12.219Z,42.43
2023-01-26T08:08:43.638Z,46.70
2023-01-26T08:11:10.900Z,43.03
2023-01-26T08:13:40.136Z,37.03
2023-01-26T08:16:12.800Z,35.97
2023-01-26T08:18:43.013Z,33.63
2023-01-26T08:21:10.583Z,40.40
2023-01-26T08:23:39.453Z,39.20
2023-01-26T08:26:13.154Z,36.97
2023-01-26T08:28:42.515Z,34.43
2023-01-26T08:31:11.671Z,33.47
2023-01-26T08:33:44.230Z,31.83
2023-01-26T08:36:12.457Z,30.30
2023-01-26T08:38:44.437Z,32.50
2023-01-26T08:41:13.840Z,30.07
2023-01-26T08:43:40.673Z,31.13
2023-01-26T08:46:07.634Z,28.30
2023-01-26T08:48:37.436Z,28.73
2023-01-26T08:51:09.679Z,28.07
2023-01-26T08:53:37.384Z,31.80
2023-01-26T08:56:08.290Z,27.30
2023-01-26T08:58:35.511Z,30.47
2023-01-26T09:01:10.561Z,32.40
2023-01-26T09:03:37.853Z,30.43
2023-01-26T09:06:05.241Z,29.33
2023-01-26T09:08:32.097Z,25.93
2023-01-26T09:10:58.908Z,31.87
2023-01-26T09:13:28.171Z,30.17
2023-01-26T09:15:57.528Z,32.90
2023-01-26T09:18:26.439Z,30.43
2023-01-26T09:20:53.674Z,29.20
2023-01-26T09:23:22.936Z,26.07
2023-01-26T09:25:53.391Z,28.93
2023-01-26T09:28:20.169Z,29.40
2023-01-26T09:30:51.647Z,27.63
2023-01-26T09:33:18.583Z,28.80
2023-01-26T09:35:45.368Z,31.10
2023-01-26T09:38:12.159Z,26.03
2023-01-26T09:40:57.548Z,25.60
2023-01-26T09:43:59.812Z,27.00
2023-01-26T09:46:33.110Z,23.17
2023-01-26T09:48:59.941Z,25.53
2023-01-26T09:51:31.580Z,24.47
2023-01-26T09:54:04.882Z,23.10
2023-01-26T09:56:32.993Z,25.10
2023-01-26T09:59:40.864Z,25.07
2023-01-26T10:02:24.400Z,24.37
2023-01-26T10:04:53.252Z,28.33
2023-01-26T10:07:20.067Z,26.63
2023-01-26T10:09:48.906Z,23.53
2023-01-26T10:12:23.089Z,24.60
2023-01-26T10:15:01.416Z,23.27
2023-01-26T10:17:32.250Z,23.27
2023-01-26T10:20:06.330Z,25.43
2023-01-26T10:22:47.507Z,26.17
2023-01-26T10:25:25.508Z,21.77
2023-01-26T10:27:52.285Z,23.50
2023-01-26T10:30:19.752Z,25.47
2023-01-26T10:32:47.676Z,27.93
2023-01-26T10:35:22.977Z,27.63
2023-01-26T10:37:53.189Z,25.17
2023-01-26T10:40:20.414Z,27.10
2023-01-26T10:43:00.040Z,24.30
2023-01-26T10:45:32.545Z,25.47
2023-01-26T10:48:27.028Z,21.13
2023-01-26T10:50:56.354Z,24.73
2023-01-26T10:53:24.529Z,26.90
2023-01-26T10:56:13.526Z,23.13
2023-01-26T10:58:57.811Z,25.57
2023-01-26T11:01:28.211Z,22.63
2023-01-26T11:04:04.684Z,25.33
2023-01-26T11:06:31.543Z,24.67
2023-01-26T11:09:15.885Z,22.37
2023-01-26T11:11:44.568Z,28.20
2023-01-26T11:14:13.872Z,22.57
2023-01-26T11:16:45.560Z,20.10
2023-01-26T11:19:43.742Z,25.67
2023-01-26T11:22:17.969Z,21.63
2023-01-26T11:25:02.990Z,23.97
2023-01-26T11:27:53.113Z,20.87
2023-01-26T11:30:42.975Z,23.63
2023-01-26T11:33:43.524Z,20.80
2023-01-26T11:36:15.455Z,24.70
2023-01-26T11:38:47.264Z,24.70
2023-01-26T11:41:25.427Z,24.37
2023-01-26T11:44:03.260Z,24.03
2023-01-26T11:47:11.673Z,28.63
2023-01-26T11:50:17.887Z,25.37
2023-01-26T11:53:10.777Z,23.73
2023-01-26T11:55:58.709Z,26.50
2023-01-26T11:58:35.300Z,24.70
2023-01-26T12:01:21.123Z,23.80
2023-01-26T12:03:51.077Z,27.53
2023-01-26T12:06:24.617Z,25.40
2023-01-26T12:09:05.307Z,25.57
2023-01-26T12:11:45.029Z,26.53
2023-01-26T12:14:23.117Z,29.47
2023-01-26T12:17:18.506Z,30.13
2023-01-26T12:19:52.795Z,27.53
2023-01-26T12:22:49.588Z,27.50
2023-01-26T12:25:35.055Z,29.60
2023-01-26T12:28:30.031Z,26.73
2023-01-26T12:30:59.761Z,24.47
2023-01-26T12:33:26.712Z,27.17
2023-01-26T12:36:18.070Z,26.37
2023-01-26T12:39:03.265Z,28.23
2023-01-26T12:42:18.134Z,30.27
2023-01-26T12:44:50.930Z,27.07
2023-01-26T12:47:29.823Z,31.57
2023-01-26T12:50:06.675Z,27.83
2023-01-26T12:53:04.932Z,29.80
2023-01-26T12:55:40.568Z,33.50
2023-01-26T12:58:23.463Z,33.63
2023-01-26T13:01:11.944Z,29.37
2023-01-26T13:03:46.125Z,35.53
2023-01-26T13:06:12.868Z,32.43
2023-01-26T13:08:40.453Z,31.87
2023-01-26T13:11:10.960Z,31.50
2023-01-26T13:13:53.129Z,37.53
2023-01-26T13:16:34.198Z,32.57
2023-01-26T13:19:01.920Z,32.63
2023-01-26T13:21:42.146Z,32.93
2023-01-26T13:24:17.883Z,34.43
2023-01-26T13:26:45.836Z,39.23
2023-01-26T13:29:25.051Z,36.63
2023-01-26T13:32:11.753Z,42.37
2023-01-26T13:34:45.784Z,38.50
2023-01-26T13:37:19.615Z,39.03
2023-01-26T13:39:49.796Z,47.27
2023-01-26T13:42:29.773Z,40.40
2023-01-26T13:45:01.248Z,39.63
2023-01-26T13:47:31.695Z,44.73
2023-01-26T13:49:58.964Z,44.10
2023-01-26T13:52:26.376Z,48.30
2023-01-26T13:54:54.456Z,43.43
2023-01-26T13:57:22.380Z,42.30
2023-01-26T14:00:00.325Z,42.47
2023-01-26T14:02:31.213Z,44.73
2023-01-26T14:05:00.954Z,40.90
2023-01-26T14:07:43.734Z,52.90
2023-01-26T14:10:21.277Z,36.70
2023-01-26T14:12:55.915Z,40.67
2023-01-26T14:15:30.088Z,47.23
2023-01-26T14:17:58.794Z,46.17
2023-01-26T14:20:36.255Z,45.63
2023-01-26T14:23:13.801Z,51.00
2023-01-26T14:25:58.424Z,43.30
2023-01-26T14:28:28.500Z,46.10
2023-01-26T14:31:18.802Z,45.13
2023-01-26T14:33:45.779Z,44.20
2023-01-26T14:36:16.788Z,40.13
2023-01-26T14:38:46.739Z,39.23
2023-01-26T14:41:17.568Z,42.87
2023-01-26T14:43:46.708Z,41.87
2023-01-26T14:46:40.886Z,45.33
2023-01-26T14:49:16.760Z,38.80
2023-01-26T14:51:46.553Z,38.33
2023-01-26T14:54:29.746Z,41.77
2023-01-26T14:56:59.078Z,39.87
2023-01-26T14:59:33.305Z,33.73
2023-01-26T15:02:10.420Z,36.13
2023-01-26T15:04:38.565Z,41.60
2023-01-26T15:07:33.096Z,38.50
2023-01-26T15:10:02.416Z,34.73
2023-01-26T15:12:33.818Z,37.03
2023-01-26T15:15:00.863Z,40.33
2023-01-26T15:17:37.692Z,37.00
2023-01-26T15:20:19.432Z,37.83
2023-01-26T15:22:52.680Z,35.30
2023-01-26T15:25:29.489Z,37.47
2023-01-26T15:27:59.305Z,34.90
2023-01-26T15:30:33.627Z,34.90
2023-01-26T15:33:00.658Z,32.67
2023-01-26T15:35:31.963Z,32.53
2023-01-26T15:38:06.411Z,31.37
2023-01-26T15:40:33.317Z,32.63
2023-01-26T15:43:13.315Z,27.90
2023-01-26T15:45:43.441Z,31.93
2023-01-26T15:48:10.225Z,33.10
2023-01-26T15:50:37.004Z,29.20
2023-01-26T15:53:03.824Z,32.40
2023-01-26T15:55:31.706Z,29.13
2023-01-26T15:57:58.515Z,33.67
2023-01-26T16:00:29.759Z,33.53
2023-01-26T16:02:56.559Z,33.23
2023-01-26T16:05:24.201Z,36.30
2023-01-26T16:07:53.588Z,31.20
2023-01-26T16:10:20.404Z,27.67
2023-01-26T16:12:48.441Z,28.33
2023-01-26T16:15:51.985Z,28.67
2023-01-26T16:18:19.511Z,29.27
2023-01-26T16:20:47.448Z,28.27
2023-01-26T16:23:25.134Z,26.17
2023-01-26T16:25:54.601Z,27.77
2023-01-26T16:28:21.685Z,28.70
2023-01-26T16:30:50.184Z,29.13
2023-01-26T16:33:21.032Z,23.80
2023-01-26T16:35:48.253Z,27.63
2023-01-26T16:38:15.022Z,28.93
2023-01-26T16:40:42.754Z,26.17
2023-01-26T16:43:23.773Z,26.67
2023-01-26T16:45:51.099Z,26.43
2023-01-26T16:48:17.906Z,27.37
2023-01-26T16:50:50.037Z,24.57
2023-01-26T16:53:28.121Z,25.03
2023-01-26T16:55:54.937Z,26.50
2023-01-26T16:58:22.265Z,28.17
2023-01-26T17:00:51.793Z,33.53
2023-01-26T17:03:18.624Z,29.87
2023-01-26T17:05:45.461Z,26.67
2023-01-26T17:08:12.280Z,24.97
2023-01-26T17:10:51.885Z,27.63
2023-01-26T17:13:25.755Z,28.47
2023-01-26T17:15:52.561Z,29.03
2023-01-26T17:18:21.436Z,33.97
2023-01-26T17:20:48.251Z,31.97
2023-01-26T17:23:17.417Z,29.87
2023-01-26T17:25:48.856Z,30.37
2023-01-26T17:28:18.467Z,32.67
2023-01-26T17:30:45.281Z,23.73
2023-01-26T17:33:14.275Z,27.33
2023-01-26T17:35:41.500Z,29.33
2023-01-26T17:38:08.297Z,25.67
2023-01-26T17:40:36.741Z,31.50
2023-01-26T17:43:03.508Z,25.93
2023-01-26T17:45:30.294Z,29.23
2023-01-26T17:47:57.053Z,25.63
2023-01-26T17:50:26.011Z,30.73
2023-01-26T17:52:52.747Z,28.43
2023-01-26T17:55:21.629Z,30.83
2023-01-26T17:57:48.405Z,30.47
2023-01-26T18:00:16.045Z,32.57
2023-01-26T18:02:42.869Z,29.23
2023-01-26T18:05:12.366Z,28.13
2023-01-26T18:07:41.475Z,32.43
2023-01-26T18:10:09.096Z,29.77
2023-01-26T18:12:37.716Z,29.10
2023-01-26T18:15:07.473Z,30.17
2023-01-26T18:17:34.250Z,31.00
2023-01-26T18:20:03.665Z,31.90
2023-01-26T18:22:30.827Z,29.53
2023-01-26T18:24:57.643Z,27.13
2023-01-26T18:27:24.523Z,28.87
2023-01-26T18:29:51.307Z,28.73
2023-01-26T18:32:20.288Z,30.97
2023-01-26T18:34:49.355Z,30.50
2023-01-26T18:37:18.349Z,30.80
2023-01-26T18:39:45.108Z,28.33
2023-01-26T18:42:11.959Z,31.87
2023-01-26T18:44:41.243Z,32.67
2023-01-26T18:47:08.028Z,34.03
2023-01-26T18:49:34.822Z,34.50
2023-01-26T18:52:01.589Z,34.47
2023-01-26T18:54:29.290Z,33.10
2023-01-26T18:56:57.002Z,34.23
2023-01-26T18:59:23.789Z,35.17
2023-01-26T19:01:51.097Z,36.47
2023-01-26T19:04:18.418Z,36.47
2023-01-26T19:06:45.379Z,36.57
2023-01-26T19:09:12.220Z,33.77
2023-01-26T19:11:41.270Z,31.93
2023-01-26T19:14:08.434Z,31.13
2023-01-26T19:16:35.882Z,30.13
2023-01-26T19:19:05.248Z,34.07
2023-01-26T19:21:36.697Z,30.73
2023-01-26T19:24:06.261Z,33.40
2023-01-26T19:26:33.154Z,33.93
2023-01-26T19:29:02.619Z,33.03
2023-01-26T19:31:29.518Z,32.20
2023-01-26T19:34:01.160Z,35.93
2023-01-26T19:36:28.773Z,34.13
2023-01-26T19:38:55.596Z,29.23
2023-01-26T19:41:24.997Z,28.90
2023-01-26T19:43:51.919Z,29.47
2023-01-26T19:46:18.966Z,32.23
2023-01-26T19:48:48.519Z,26.60
2023-01-26T19:51:15.995Z,29.50
2023-01-26T19:53:45.063Z,25.30
2023-01-26T19:56:20.228Z,27.77
2023-01-26T19:58:53.674Z,26.30
2023-01-26T20:01:20.915Z,25.00
2023-01-26T20:03:51.802Z,24.93
2023-01-26T20:06:20.656Z,25.83
2023-01-26T20:08:47.700Z,28.87
2023-01-26T20:11:17.017Z,26.47
2023-01-26T20:13:43.881Z,23.43
2023-01-26T20:16:13.741Z,25.77
2023-01-26T20:18:45.618Z,24.60
2023-01-26T20:21:12.401Z,28.27
2023-01-26T20:23:48.483Z,24.67
2023-01-26T20:26:20.311Z,29.17
2023-01-26T20:28:47.319Z,26.10
2023-01-26T20:31:16.720Z,26.87
2023-01-26T20:33:49.221Z,26.23
2023-01-26T20:36:17.747Z,27.37
2023-01-26T20:38:47.424Z,24.83
2023-01-26T20:41:19.422Z,28.53
2023-01-26T20:44:03.731Z,26.30
2023-01-26T20:46:40.817Z,24.73
2023-01-26T20:49:08.805Z,27.87
2023-01-26T20:51:42.561Z,29.80
2023-01-26T20:54:11.800Z,24.67
2023-01-26T20:56:38.622Z,22.13
2023-01-26T20:59:05.915Z,23.47
2023-01-26T21:01:36.518Z,28.40
2023-01-26T21:04:06.182Z,22.77
2023-01-26T21:06:38.955Z,30.50
2023-01-26T21:09:05.795Z,28.20
2023-01-26T21:11:32.765Z,23.60
2023-01-26T21:14:01.674Z,21.43
2023-01-26T21:16:29.234Z,22.70
2023-01-26T21:18:58.686Z,24.93
2023-01-26T21:21:25.673Z,25.57
2023-01-26T21:23:54.697Z,29.40
2023-01-26T21:26:23.066Z,26.53
2023-01-26T21:28:53.688Z,25.00
2023-01-26T21:31:20.988Z,26.10
2023-01-26T21:33:48.375Z,26.90
2023-01-26T21:36:17.390Z,23.13
2023-01-26T21:38:46.547Z,24.03
2023-01-26T21:41:33.566Z,27.57
2023-01-26T21:44:12.562Z,24.33
2023-01-26T21:46:42.150Z,23.03
2023-01-26T21:49:09.831Z,22.10
2023-01-26T21:51:55.096Z,20.70
2023-01-26T21:54:21.865Z,23.00
2023-01-26T21:56:51.154Z,24.57
2023-01-26T21:59:18.170Z,24.03
2023-01-26T22:01:45.948Z,25.17
2023-01-26T22:04:24.046Z,25.63
2023-01-26T22:06:52.291Z,25.93
2023-01-26T22:09:19.263Z,28.77
2023-01-26T22:11:46.045Z,35.13
2023-01-26T22:14:17.200Z,29.33
2023-01-26T22:16:44.061Z,29.90
2023-01-26T22:19:11.090Z,28.47
2023-01-26T22:21:43.064Z,32.73
2023-01-26T22:24:13.137Z,29.13
2023-01-26T22:26:40.088Z,31.40
2023-01-26T22:29:10.676Z,31.87
2023-01-26T22:31:37.628Z,35.30
2023-01-26T22:34:07.086Z,30.00
2023-01-26T22:36:33.874Z,32.93
2023-01-26T22:39:00.721Z,29.87
2023-01-26T22:41:29.262Z,29.07
2023-01-26T22:43:58.454Z,27.00
2023-01-26T22:46:25.826Z,28.77
2023-01-26T22:48:57.161Z,27.67
2023-01-26T22:51:25.941Z,32.80
2023-01-26T22:53:55.302Z,32.47
2023-01-26T22:56:24.230Z,30.67
2023-01-26T22:58:57.953Z,32.40
2023-01-26T23:01:26.749Z,29.43
2023-01-26T23:03:56.524Z,28.93
2023-01-26T23:06:25.703Z,25.30
2023-01-26T23:08:54.985Z,27.40
2023-01-26T23:11:30.914Z,23.77
2023-01-26T23:14:00.794Z,27.37
2023-01-26T23:16:27.734Z,25.17
2023-01-26T23:18:55.533Z,24.90
2023-01-26T23:21:25.088Z,31.47
2023-01-26T23:23:52.050Z,27.07
2023-01-26T23:26:23.767Z,29.83
2023-01-26T23:28:53.130Z,37.90
2023-01-26T23:31:22.381Z,32.53
2023-01-26T23:33:51.871Z,34.23
2023-01-26T23:36:18.739Z,35.03
2023-01-26T23:38:45.849Z,37.07
2023-01-26T23:41:15.211Z,39.00
2023-01-26T23:43:42.191Z,37.87
2023-01-26T23:46:09.373Z,33.73
2023-01-26T23:48:36.243Z,34.87
2023-01-26T23:51:08.503Z,36.00
2023-01-26T23:53:35.362Z,33.10
2023-01-26T23:56:16.282Z,35.73
2023-01-26T23:58:43.120Z,34.50
